createdAt,value
2023-01-13T00:01:56.825Z,97.56
2023-01-13T00:06:59.103Z,97.65
2023-01-13T00:12:01.364Z,98.81
2023-01-13T00:17:04.573Z,98.96
2023-01-13T00:22:06.834Z,99.87
2023-01-13T00:27:08.869Z,99.94
2023-01-13T00:32:10.915Z,100.00
2023-01-13T00:37:14.688Z,100.00
2023-01-13T00:42:35.071Z,99.06
2023-01-13T00:47:37.304Z,98.61
2023-01-13T00:52:41.904Z,100.00
2023-01-13T00:57:44.533Z,98.07
2023-01-13T01:02:46.598Z,97.34
2023-01-13T01:07:48.830Z,97.02
2023-01-13T01:12:50.999Z,96.72
2023-01-13T01:17:53.290Z,95.39
2023-01-13T01:22:55.429Z,95.21
2023-01-13T01:27:57.613Z,95.60
2023-01-13T01:32:59.656Z,95.08
2023-01-13T01:38:01.739Z,95.11
2023-01-13T01:43:40.255Z,96.37
2023-01-13T01:48:43.071Z,96.80
2023-01-13T01:53:45.070Z,97.37
2023-01-13T01:58:52.447Z,98.59
2023-01-13T02:04:16.512Z,100.00
2023-01-13T02:09:18.689Z,100.00
2023-01-13T02:14:28.307Z,100.00
2023-01-13T02:20:32.916Z,100.00
2023-01-13T02:26:23.144Z,100.00
2023-01-13T02:31:44.607Z,100.00
2023-01-13T02:36:59.978Z,100.00
2023-01-13T02:42:37.823Z,99.33
2023-01-13T02:47:46.304Z,99.70
2023-01-13T02:53:05.534Z,99.66
2023-01-13T02:58:13.810Z,100.00
2023-01-13T03:03:15.861Z,100.00
2023-01-13T03:08:43.517Z,100.00
2023-01-13T03:14:12.968Z,100.00
2023-01-13T03:19:31.189Z,100.00
2023-01-13T03:24:55.778Z,100.00
2023-01-13T03:30:14.280Z,100.00
2023-01-13T03:35:30.886Z,100.00
2023-01-13T03:40:45.626Z,100.00
2023-01-13T03:45:59.768Z,100.00
2023-01-13T03:51:11.249Z,100.00
2023-01-13T03:56:27.325Z,100.00
2023-01-13T04:01:47.212Z,100.00
2023-01-13T04:07:03.689Z,100.00
2023-01-13T04:12:57.049Z,100.00
2023-01-13T04:18:15.602Z,100.00
2023-01-13T04:23:19.349Z,100.00
2023-01-13T04:28:22.570Z,100.00
2023-01-13T04:33:25.026Z,100.00
2023-01-13T04:38:27.391Z,99.26
2023-01-13T04:43:29.623Z,98.41
2023-01-13T04:48:31.703Z,99.14
2023-01-13T04:53:33.733Z,99.59
2023-01-13T04:58:35.992Z,98.77
2023-01-13T05:03:38.030Z,98.34
2023-01-13T05:08:40.048Z,97.80
2023-01-13T05:14:00.622Z,98.31
2023-01-13T05:19:02.672Z,96.86
2023-01-13T05:24:23.778Z,96.81
2023-01-13T05:29:25.975Z,94.91
2023-01-13T05:34:28.210Z,96.44
2023-01-13T05:39:50.189Z,96.76
2023-01-13T05:44:52.261Z,95.94
2023-01-13T05:49:54.722Z,97.57
2023-01-13T05:54:56.869Z,97.89
2023-01-13T05:59:58.974Z,97.55
2023-01-13T06:05:00.962Z,98.14
2023-01-13T06:10:03.065Z,97.45
2023-01-13T06:15:06.119Z,97.88
2023-01-13T06:20:09.706Z,96.99
2023-01-13T06:26:00.163Z,97.04
2023-01-13T06:31:07.475Z,98.32
2023-01-13T06:36:22.214Z,99.12
2023-01-13T06:41:46.273Z,99.11
2023-01-13T06:46:48.357Z,99.29
2023-01-13T06:51:50.460Z,100.00
2023-01-13T06:56:52.661Z,100.00
2023-01-13T07:01:55.191Z,100.00
2023-01-13T07:06:57.482Z,100.00
2023-01-13T07:11:59.887Z,100.00
2023-01-13T07:17:01.881Z,100.00
2023-01-13T07:22:04.070Z,100.00
2023-01-13T07:27:06.111Z,100.00
2023-01-13T07:32:08.429Z,100.00
2023-01-13T07:37:10.689Z,100.00
2023-01-13T07:42:31.162Z,100.00
2023-01-13T07:47:33.411Z,99.84
2023-01-13T07:52:35.733Z,100.00
2023-01-13T07:57:37.785Z,98.75
2023-01-13T08:02:40.179Z,98.32
2023-01-13T08:07:42.379Z,98.46
2023-01-13T08:13:03.096Z,97.25
2023-01-13T08:18:05.133Z,100.00
2023-01-13T08:23:07.778Z,100.00
2023-01-13T08:28:09.976Z,100.00
2023-01-13T08:33:13.362Z,100.00
2023-01-13T08:38:15.401Z,100.00
2023-01-13T08:43:17.491Z,100.00
2023-01-13T08:48:19.535Z,100.00
2023-01-13T08:53:21.681Z,100.00
2023-01-13T08:58:24.078Z,100.00
2023-01-13T09:03:26.462Z,100.00
2023-01-13T09:08:28.628Z,100.00
2023-01-13T09:13:30.689Z,100.00
2023-01-13T09:18:32.810Z,100.00
2023-01-13T09:23:35.046Z,100.00
2023-01-13T09:28:37.337Z,100.00
2023-01-13T09:33:57.888Z,100.00
2023-01-13T09:39:00.046Z,100.00
2023-01-13T09:44:07.185Z,100.00
2023-01-13T09:49:26.876Z,100.00
2023-01-13T09:54:43.998Z,100.00
2023-01-13T09:59:46.585Z,100.00
2023-01-13T10:05:32.327Z,100.00
2023-01-13T10:10:50.665Z,100.00
2023-01-13T10:16:10.947Z,100.00
2023-01-13T10:21:42.052Z,100.00
2023-01-13T10:27:05.594Z,100.00
2023-01-13T10:32:07.700Z,100.00
2023-01-13T10:37:26.448Z,100.00
2023-01-13T10:42:28.905Z,100.00
2023-01-13T10:47:37.272Z,100.00
2023-01-13T10:53:16.277Z,100.00
2023-01-13T10:58:21.211Z,100.00
2023-01-13T11:03:25.319Z,100.00
2023-01-13T11:08:45.252Z,100.00
2023-01-13T11:14:09.357Z,100.00
2023-01-13T11:19:18.805Z,100.00
2023-01-13T11:24:37.438Z,100.00
2023-01-13T11:30:19.553Z,100.00
2023-01-13T11:35:22.418Z,100.00
2023-01-13T11:40:42.664Z,100.00
2023-01-13T11:45:51.930Z,100.00
2023-01-13T11:51:04.642Z,100.00
2023-01-13T11:56:40.598Z,100.00
2023-01-13T12:02:22.056Z,85.99
2023-01-13T12:07:59.921Z,69.28
2023-01-13T12:13:21.356Z,82.25
2023-01-13T12:18:51.434Z,96.35
2023-01-13T12:24:17.849Z,91.09
2023-01-13T12:29:26.777Z,66.05
2023-01-13T12:34:51.852Z,67.00
2023-01-13T12:40:20.276Z,69.21
2023-01-13T12:45:24.896Z,79.72
2023-01-13T12:50:27.393Z,62.54
2023-01-13T12:55:33.781Z,65.68
2023-01-13T13:00:41.561Z,75.74
2023-01-13T13:06:02.195Z,78.89
2023-01-13T13:11:31.813Z,79.61
2023-01-13T13:16:46.511Z,78.22
2023-01-13T13:22:13.558Z,80.56
2023-01-13T13:27:45.651Z,79.70
2023-01-13T13:33:11.744Z,82.81
2023-01-13T13:39:23.244Z,79.47
2023-01-13T13:44:59.178Z,78.07
2023-01-13T13:50:14.807Z,78.03
2023-01-13T13:55:29.773Z,78.81
2023-01-13T14:00:38.117Z,81.73
2023-01-13T14:05:52.055Z,86.13
2023-01-13T14:10:54.588Z,95.64
2023-01-13T14:16:06.229Z,100.00
2023-01-13T14:21:29.384Z,100.00
2023-01-13T14:26:34.050Z,100.00
2023-01-13T14:31:38.582Z,100.00
2023-01-13T14:36:41.990Z,100.00
2023-01-13T14:41:48.205Z,100.00
2023-01-13T14:46:51.060Z,100.00
2023-01-13T14:51:54.584Z,100.00
2023-01-13T14:57:35.678Z,100.00
2023-01-13T15:02:40.661Z,100.00
2023-01-13T15:07:50.560Z,100.00
2023-01-13T15:12:56.426Z,100.00
2023-01-13T15:17:59.860Z,100.00
2023-01-13T15:23:02.135Z,100.00
2023-01-13T15:28:06.680Z,100.00
2023-01-13T15:33:12.819Z,100.00
2023-01-13T15:38:19.077Z,100.00
2023-01-13T15:43:42.684Z,100.00
2023-01-13T15:48:44.809Z,100.00
2023-01-13T15:53:49.932Z,100.00
2023-01-13T15:58:52.689Z,100.00
2023-01-13T16:03:56.551Z,100.00
2023-01-13T16:08:59.661Z,100.00
2023-01-13T16:14:01.869Z,100.00
2023-01-13T16:19:04.285Z,100.00
2023-01-13T16:24:06.651Z,100.00
2023-01-13T16:29:12.720Z,100.00
2023-01-13T16:34:14.977Z,100.00
2023-01-13T16:39:22.286Z,100.00
2023-01-13T16:44:24.899Z,100.00
2023-01-13T16:49:27.221Z,100.00
2023-01-13T16:54:29.219Z,100.00
2023-01-13T16:59:31.304Z,100.00
2023-01-13T17:04:33.357Z,100.00
2023-01-13T17:09:35.596Z,100.00
2023-01-13T17:14:37.787Z,100.00
2023-01-13T17:19:40.028Z,100.00
2023-01-13T17:24:42.771Z,100.00
2023-01-13T17:29:45.146Z,100.00
2023-01-13T17:34:47.630Z,100.00
2023-01-13T17:39:51.146Z,100.00
2023-01-13T17:44:53.480Z,100.00
2023-01-13T17:49:55.956Z,100.00
2023-01-13T17:54:58.114Z,100.00
2023-01-13T18:00:00.400Z,100.00
2023-01-13T18:05:02.454Z,100.00
2023-01-13T18:10:04.978Z,100.00
2023-01-13T18:15:07.755Z,100.00
2023-01-13T18:20:52.910Z,100.00
2023-01-13T18:26:13.886Z,100.00
2023-01-13T18:31:16.167Z,100.00
2023-01-13T18:36:18.632Z,100.00
2023-01-13T18:41:39.447Z,100.00
2023-01-13T18:46:41.675Z,100.00
2023-01-13T18:51:43.746Z,100.00
2023-01-13T18:56:47.008Z,100.00
2023-01-13T19:01:49.419Z,100.00
2023-01-13T19:06:51.858Z,100.00
2023-01-13T19:11:54.981Z,100.00
2023-01-13T19:16:57.769Z,100.00
2023-01-13T19:22:00.121Z,100.00
2023-01-13T19:27:03.054Z,100.00
2023-01-13T19:32:05.467Z,100.00
2023-01-13T19:37:08.025Z,100.00
2023-01-13T19:42:31.332Z,100.00
2023-01-13T19:47:34.153Z,100.00
2023-01-13T19:52:36.272Z,100.00
2023-01-13T19:57:40.079Z,100.00
2023-01-13T20:02:49.335Z,100.00
2023-01-13T20:07:52.851Z,100.00
2023-01-13T20:12:55.514Z,100.00
2023-01-13T20:17:58.278Z,100.00
2023-01-13T20:23:00.654Z,100.00
2023-01-13T20:28:02.749Z,100.00
2023-01-13T20:33:04.943Z,100.00
2023-01-13T20:38:06.989Z,100.00
2023-01-13T20:43:09.228Z,100.00
2023-01-13T20:48:11.468Z,100.00
2023-01-13T20:53:13.490Z,100.00
2023-01-13T20:58:15.775Z,100.00
2023-01-13T21:03:18.102Z,100.00
2023-01-13T21:08:20.287Z,100.00
2023-01-13T21:13:41.217Z,100.00
2023-01-13T21:19:02.026Z,100.00
2023-01-13T21:24:04.698Z,100.00
2023-01-13T21:29:06.811Z,100.00
2023-01-13T21:34:10.896Z,100.00
2023-01-13T21:39:14.693Z,100.00
2023-01-13T21:44:38.654Z,100.00
2023-01-13T21:49:44.272Z,100.00
2023-01-13T21:55:05.092Z,100.00
2023-01-13T22:00:09.615Z,100.00
2023-01-13T22:05:14.929Z,100.00
2023-01-13T22:10:22.648Z,100.00
2023-01-13T22:15:28.190Z,100.00
2023-01-13T22:20:30.235Z,100.00
2023-01-13T22:25:32.274Z,100.00
2023-01-13T22:30:34.308Z,100.00
2023-01-13T22:35:36.595Z,100.00
2023-01-13T22:40:38.784Z,100.00
2023-01-13T22:45:40.867Z,100.00
2023-01-13T22:50:43.911Z,100.00
2023-01-13T22:55:55.810Z,100.00
2023-01-13T23:01:13.071Z,100.00
2023-01-13T23:06:18.256Z,100.00
2023-01-13T23:11:24.088Z,100.00
2023-01-13T23:16:28.533Z,100.00
2023-01-13T23:21:34.537Z,100.00
2023-01-13T23:26:37.595Z,100.00
2023-01-13T23:31:40.678Z,100.00
2023-01-13T23:36:43.856Z,100.00
2023-01-13T23:41:45.921Z,100.00
2023-01-13T23:46:48.002Z,100.00
2023-01-13T23:51:51.653Z,100.00
2023-01-13T23:56:53.866Z,100.00
